Terminal Aerodrome Forecast
Issued by NWS St Louis, MO

Home | Current Version | Previous Version | Graphics & Text | Print | Product List | Glossary On
Versions: 1 2 3 4 5 6 7 8 9 10 11 12 13 14 15 16 17 18 19 20 21
145
FTUS43 KLSX 201120
TAFSTL
TAF
KSTL 201120Z 2012/2118 21011KT P6SM VCTS BKN080CB
      TEMPO 2015/2016 -SHRA BKN050
     FM201700 25012G22KT P6SM -SHRA VCTS OVC050CB
     FM202100 29012G22KT P6SM BKN070
     FM210000 32010KT P6SM SCT110
     FM210500 36008KT P6SM FEW200=

USA.gov is the U.S. government's official web portal to all federal, state and local government web resources and services.